Time;durP1;ratioP1;P1;durP2;ratioP2;P2;SDS_P1;SDS_P2;PMS_P1;PMS_P2;Temp;Humidity;BMP_temperature;BMP_pressure;BME280_temperature;BME280_humidity;BME280_pressure;Samples;Min_cycle;Max_cycle;Signal;HPM_P1;HPM_P2
2023/06/29 00:00:13;;;;;;;11.98;7.68;;;18.40;53.60;;;;;;5094497;28;20069;-68
2023/06/29 00:02:39;;;;;;;11.88;7.80;;;18.50;55.10;;;;;;5095073;28;20491;-68
2023/06/29 00:05:06;;;;;;;14.63;8.70;;;18.30;52.70;;;;;;5110922;28;20098;-68
2023/06/29 00:07:33;;;;;;;13.63;7.47;;;18.40;52.80;;;;;;5094146;28;20484;-68
2023/06/29 00:10:00;;;;;;;15.73;8.50;;;18.40;54.90;;;;;;5095016;28;20047;-68
2023/06/29 00:12:26;;;;;;;11.48;7.82;;;18.80;60.10;;;;;;5093743;28;20044;-68
2023/06/29 00:14:51;;;;;;;10.85;7.82;;;18.60;56.10;;;;;;5093734;28;20040;-68
2023/06/29 00:17:17;;;;;;;14.45;7.93;;;21.00;57.30;;;;;;5110906;28;20036;-68
2023/06/29 00:19:42;;;;;;;20.23;8.45;;;18.20;57.00;;;;;;5111057;28;20047;-69
2023/06/29 00:22:09;;;;;;;12.57;7.97;;;18.40;58.00;;;;;;5110905;28;20050;-69
2023/06/29 00:24:42;;;;;;;13.93;8.38;;;18.40;59.90;;;;;;5093842;28;20426;-67
2023/06/29 00:27:09;;;;;;;11.38;7.53;;;18.40;59.40;;;;;;5093563;28;20040;-68
2023/06/29 00:29:35;;;;;;;15.27;9.15;;;18.40;60.20;;;;;;5093659;28;20047;-67
2023/06/29 00:32:01;;;;;;;11.57;7.68;;;18.20;62.10;;;;;;5094652;28;20044;-68
2023/06/29 00:34:27;;;;;;;12.45;8.35;;;18.30;60.50;;;;;;5110302;28;20066;-68
2023/06/29 00:36:52;;;;;;;10.32;7.03;;;18.40;60.70;;;;;;5076411;28;20535;-68
2023/06/29 00:39:18;;;;;;;14.60;8.45;;;18.10;60.20;;;;;;5110349;28;20085;-68
2023/06/29 00:41:43;;;;;;;14.63;9.27;;;18.40;66.40;;;;;;5094787;28;20063;-68
2023/06/29 00:44:09;;;;;;;13.18;8.05;;;18.30;67.60;;;;;;5110244;28;20039;-68
2023/06/29 00:46:35;;;;;;;12.10;8.68;;;18.30;65.70;;;;;;5093220;28;20424;-68
2023/06/29 00:49:00;;;;;;;13.55;9.23;;;18.40;70.10;;;;;;5110317;28;20083;-67
2023/06/29 00:51:26;;;;;;;12.50;8.32;;;18.30;69.00;;;;;;5092927;28;20043;-68
2023/06/29 00:53:52;;;;;;;14.13;8.52;;;18.40;69.20;;;;;;5109955;28;20047;-68
2023/06/29 00:56:17;;;;;;;11.68;8.55;;;18.80;70.70;;;;;;5109934;28;20039;-68
2023/06/29 00:58:43;;;;;;;13.45;9.15;;;18.30;71.40;;;;;;5109940;28;20040;-68
2023/06/29 01:01:09;;;;;;;14.93;9.38;;;18.20;69.40;;;;;;5109948;28;20043;-67
2023/06/29 01:03:36;;;;;;;13.07;8.60;;;18.20;69.30;;;;;;5094386;28;20491;-69
2023/06/29 01:06:07;;;;;;;15.48;8.93;;;18.80;70.10;;;;;;5093117;28;20051;-68
2023/06/29 01:08:39;;;;;;;15.55;9.38;;;18.30;68.60;;;;;;5094259;28;20050;-69
2023/06/29 01:11:05;;;;;;;15.45;9.18;;;18.10;69.80;;;;;;5092656;28;20040;-68
2023/06/29 01:13:32;;;;;;;15.63;9.90;;;18.30;68.50;;;;;;5093879;28;20040;-68
2023/06/29 01:15:59;;;;;;;14.35;9.13;;;18.40;68.20;;;;;;5091776;28;20470;-68
2023/06/29 01:18:26;;;;;;;10.60;7.80;;;18.60;69.80;;;;;;5092862;28;20104;-69
2023/06/29 01:20:52;;;;;;;14.13;9.48;;;18.50;69.50;;;;;;5093732;28;20046;-68
2023/06/29 01:23:26;;;;;;;14.30;9.52;;;18.30;71.60;;;;;;5092551;28;20043;-68
2023/06/29 01:25:54;;;;;;;15.93;9.20;;;18.10;72.70;;;;;;5093597;28;20052;-68
2023/06/29 01:28:20;;;;;;;14.25;9.18;;;18.30;73.00;;;;;;5092363;28;20042;-68
2023/06/29 01:30:49;;;;;;;15.38;10.18;;;18.30;73.60;;;;;;5092119;28;20105;-68
2023/06/29 01:33:20;;;;;;;12.85;8.48;;;18.30;75.30;;;;;;5092609;28;20055;-68
2023/06/29 01:35:46;;;;;;;16.27;9.32;;;18.30;76.40;;;;;;5093555;28;20487;-67
2023/06/29 01:38:29;;;;;;;15.95;9.45;;;18.30;75.10;;;;;;5093399;28;20043;-68
2023/06/29 01:40:57;;;;;;;18.35;10.23;;;18.30;76.80;;;;;;5092841;28;20043;-69
2023/06/29 01:43:24;;;;;;;21.58;10.05;;;18.20;75.80;;;;;;5092159;28;20051;-68
2023/06/29 01:45:51;;;;;;;17.67;9.30;;;18.50;78.20;;;;;;5092056;28;20083;-68
2023/06/29 01:48:17;;;;;;;16.50;10.45;;;18.40;80.80;;;;;;5092074;28;20080;-69
2023/06/29 01:50:43;;;;;;;14.75;9.77;;;18.50;79.10;;;;;;5091907;28;20044;-68
2023/06/29 01:53:09;;;;;;;13.45;9.20;;;18.90;80.40;;;;;;5092314;28;20040;-69
2023/06/29 01:55:35;;;;;;;17.70;10.07;;;18.20;83.50;;;;;;5093459;28;20047;-69
2023/06/29 01:58:00;;;;;;;15.57;9.38;;;18.20;83.10;;;;;;5092191;28;20099;-68
2023/06/29 02:00:26;;;;;;;17.92;9.90;;;18.50;84.40;;;;;;5108728;28;20048;-69
2023/06/29 02:02:52;;;;;;;17.70;10.18;;;18.00;83.50;;;;;;5091787;28;20043;-68
2023/06/29 02:05:19;;;;;;;12.75;8.40;;;18.50;84.50;;;;;;5091721;28;20106;-68
2023/06/29 02:07:45;;;;;;;16.73;10.25;;;18.00;84.10;;;;;;5108612;28;20141;-69
2023/06/29 02:10:10;;;;;;;15.52;10.00;;;18.20;86.20;;;;;;5093301;28;20507;-67
2023/06/29 02:12:38;;;;;;;15.05;9.40;;;17.90;84.70;;;;;;5108560;28;20121;-69
2023/06/29 02:15:04;;;;;;;14.15;9.93;;;17.90;87.50;;;;;;5091697;28;20446;-67
2023/06/29 02:17:30;;;;;;;14.07;9.82;;;18.10;86.90;;;;;;5091610;28;20101;-67
2023/06/29 02:19:55;;;;;;;18.45;10.32;;;18.20;87.40;;;;;;5108719;28;20098;-69
2023/06/29 02:22:21;;;;;;;12.90;8.93;;;17.90;87.50;;;;;;5091771;28;20042;-69
2023/06/29 02:24:46;;;;;;;13.05;9.05;;;18.00;88.20;;;;;;5091477;28;20032;-67
2023/06/29 02:27:12;;;;;;;16.73;9.43;;;18.60;86.90;;;;;;5108227;28;20421;-69
2023/06/29 02:29:38;;;;;;;13.93;9.90;;;18.10;86.80;;;;;;5092726;28;20048;-68
2023/06/29 02:32:04;;;;;;;17.05;9.63;;;18.10;87.50;;;;;;5092939;28;20040;-69
2023/06/29 02:34:30;;;;;;;13.90;9.60;;;18.10;88.30;;;;;;5108680;28;20035;-68
2023/06/29 02:36:55;;;;;;;17.55;10.85;;;18.10;87.60;;;;;;5092681;28;20484;-68
2023/06/29 02:39:21;;;;;;;14.10;10.52;;;18.30;87.60;;;;;;5092638;28;20044;-69
2023/06/29 02:41:47;;;;;;;22.90;10.18;;;18.70;89.40;;;;;;5092816;28;20036;-68
2023/06/29 02:44:12;;;;;;;17.77;10.27;;;18.10;88.10;;;;;;5091256;28;20461;-68
2023/06/29 02:46:38;;;;;;;15.60;9.07;;;18.10;88.30;;;;;;5091521;28;20044;-68
2023/06/29 02:49:04;;;;;;;14.77;9.60;;;18.20;90.10;;;;;;5091514;28;20044;-68
2023/06/29 02:51:29;;;;;;;14.20;10.02;;;20.70;89.80;;;;;;5108116;28;20055;-68
2023/06/29 02:53:55;;;;;;;18.80;10.85;;;18.00;90.10;;;;;;5092406;28;20062;-68
2023/06/29 02:56:21;;;;;;;15.50;10.52;;;17.90;89.50;;;;;;5091450;28;20032;-68
2023/06/29 02:58:46;;;;;;;15.07;9.30;;;18.10;89.50;;;;;;5091099;28;20044;-68
2023/06/29 03:01:12;;;;;;;15.45;9.90;;;17.80;89.40;;;;;;5108048;28;20048;-67
2023/06/29 03:03:37;;;;;;;14.63;9.77;;;18.00;90.20;;;;;;5108288;28;20043;-68
2023/06/29 03:06:03;;;;;;;12.70;9.02;;;18.00;90.50;;;;;;5108299;28;20032;-68
2023/06/29 03:08:29;;;;;;;14.27;9.80;;;18.00;90.50;;;;;;5108394;28;20123;-69
2023/06/29 03:10:54;;;;;;;15.00;9.68;;;18.00;90.20;;;;;;5108106;28;20071;-68
2023/06/29 03:13:20;;;;;;;14.95;9.77;;;18.00;91.20;;;;;;5108030;28;20047;-68
2023/06/29 03:15:45;;;;;;;13.23;9.18;;;18.00;91.00;;;;;;5107910;28;20535;-68
2023/06/29 03:18:11;;;;;;;16.60;9.77;;;17.90;90.60;;;;;;5108186;28;20499;-67
2023/06/29 03:20:36;;;;;;;16.55;10.98;;;17.80;90.90;;;;;;5092413;28;20034;-68
2023/06/29 03:23:02;;;;;;;15.52;8.82;;;18.00;90.40;;;;;;5090968;28;20051;-68
2023/06/29 03:25:27;;;;;;;14.95;9.95;;;18.00;90.90;;;;;;5092534;28;20040;-68
2023/06/29 03:27:53;;;;;;;17.45;9.52;;;18.10;90.90;;;;;;5092388;28;20044;-68
2023/06/29 03:30:19;;;;;;;12.65;9.48;;;17.80;90.40;;;;;;5107817;28;20052;-68
2023/06/29 03:32:44;;;;;;;15.20;10.02;;;17.80;90.70;;;;;;5107756;28;20142;-68
2023/06/29 03:35:10;;;;;;;15.38;10.15;;;18.00;91.10;;;;;;5091173;28;20036;-68
2023/06/29 03:37:36;;;;;;;16.80;10.05;;;18.20;90.60;;;;;;5091268;28;20438;-68
2023/06/29 03:40:01;;;;;;;16.27;9.90;;;17.80;90.60;;;;;;5094746;28;20089;-68
2023/06/29 03:42:27;;;;;;;15.80;9.13;;;18.10;90.80;;;;;;5111421;28;20040;-68
2023/06/29 03:44:53;;;;;;;14.57;9.55;;;18.00;90.70;;;;;;5111361;28;20105;-68
2023/06/29 03:47:18;;;;;;;16.75;10.10;;;18.00;90.60;;;;;;5077449;28;20029;-68
2023/06/29 03:49:44;;;;;;;16.17;9.63;;;17.90;90.40;;;;;;5094572;28;20035;-68
2023/06/29 03:52:09;;;;;;;14.18;9.30;;;18.50;90.80;;;;;;5111149;28;20181;-67
2023/06/29 03:54:35;;;;;;;13.98;9.48;;;18.10;90.50;;;;;;5077351;28;20036;-68
2023/06/29 03:57:01;;;;;;;13.73;9.35;;;18.20;90.80;;;;;;5095447;28;20074;-68
2023/06/29 03:59:27;;;;;;;16.55;9.23;;;18.00;91.10;;;;;;5094473;28;20118;-68
2023/06/29 04:01:53;;;;;;;15.60;10.40;;;18.20;90.60;;;;;;5095573;28;20126;-68
2023/06/29 04:04:18;;;;;;;16.25;9.00;;;18.20;90.30;;;;;;5094021;28;20499;-68
2023/06/29 04:06:44;;;;;;;20.05;10.02;;;18.20;90.50;;;;;;5110864;28;20044;-67
2023/06/29 04:09:10;;;;;;;15.63;10.40;;;18.10;90.50;;;;;;5095502;28;20040;-68
2023/06/29 04:11:36;;;;;;;16.65;10.48;;;18.20;90.80;;;;;;5093822;28;20403;-68
2023/06/29 04:14:01;;;;;;;14.70;9.38;;;18.30;90.70;;;;;;5095361;28;20046;-68
2023/06/29 04:16:27;;;;;;;21.50;9.50;;;18.30;90.60;;;;;;5110789;28;20039;-69
2023/06/29 04:18:53;;;;;;;17.23;10.20;;;18.30;90.40;;;;;;5095003;28;20044;-68
2023/06/29 04:21:18;;;;;;;13.70;9.63;;;18.10;90.20;;;;;;5094970;28;20502;-69
2023/06/29 04:23:44;;;;;;;17.23;10.07;;;18.30;90.30;;;;;;5095060;28;20105;-69
2023/06/29 04:26:10;;;;;;;17.63;10.10;;;18.50;90.30;;;;;;5095115;28;20044;-68
2023/06/29 04:28:36;;;;;;;15.07;8.75;;;18.20;89.40;;;;;;5093580;28;20078;-69
2023/06/29 04:31:01;;;;;;;18.05;9.40;;;18.30;90.50;;;;;;5093242;28;20408;-68
2023/06/29 04:33:27;;;;;;;15.73;9.80;;;18.40;90.00;;;;;;5076863;28;20043;-68
2023/06/29 04:35:53;;;;;;;12.45;8.70;;;18.40;89.40;;;;;;5110306;28;20054;-69
2023/06/29 04:38:25;;;;;;;15.48;10.18;;;18.20;89.70;;;;;;5093324;28;20036;-69
2023/06/29 04:41:03;;;;;;;18.10;9.98;;;18.70;88.60;;;;;;5093308;28;20075;-69
2023/06/29 04:43:32;;;;;;;12.75;8.30;;;18.40;88.60;;;;;;5094765;28;20073;-70
2023/06/29 04:46:00;;;;;;;16.52;9.68;;;18.60;88.00;;;;;;5093155;28;20047;-70
2023/06/29 04:48:28;;;;;;;17.13;9.85;;;18.80;88.20;;;;;;5093350;28;20051;-71
2023/06/29 04:51:04;;;;;;;16.08;9.88;;;18.40;87.90;;;;;;5092949;28;20111;-70
2023/06/29 04:53:33;;;;;;;15.18;9.80;;;18.50;87.70;;;;;;5093070;28;20044;-69
2023/06/29 04:56:01;;;;;;;13.93;9.45;;;18.60;87.40;;;;;;5093125;28;20072;-70
2023/06/29 04:58:26;;;;;;;12.98;9.15;;;18.70;86.60;;;;;;5092982;28;20036;-70
2023/06/29 05:00:54;;;;;;;14.57;8.82;;;18.80;86.50;;;;;;5110170;28;20058;-70
2023/06/29 05:03:19;;;;;;;13.98;9.48;;;19.30;87.40;;;;;;5094471;28;20450;-69
2023/06/29 05:05:45;;;;;;;13.52;8.52;;;19.10;87.50;;;;;;5093034;28;20131;-69
2023/06/29 05:08:11;;;;;;;19.05;9.70;;;19.30;89.30;;;;;;5109743;28;20040;-69
2023/06/29 05:10:36;;;;;;;12.88;8.82;;;19.00;87.60;;;;;;5092635;28;20040;-69
2023/06/29 05:13:02;;;;;;;13.82;8.60;;;19.70;89.80;;;;;;5094219;28;20036;-69
2023/06/29 05:15:28;;;;;;;15.35;8.73;;;19.50;90.00;;;;;;5094147;28;20528;-70
2023/06/29 05:17:54;;;;;;;14.60;9.20;;;19.70;84.90;;;;;;5092876;28;20036;-70
2023/06/29 05:20:19;;;;;;;11.80;8.20;;;19.50;81.50;;;;;;5092794;28;20043;-69
2023/06/29 05:22:45;;;;;;;19.10;10.30;;;;;;;;;;5092590;28;20098;-69
2023/06/29 05:25:12;;;;;;;14.73;8.75;;;;;;;;;;5092521;28;20040;-69
2023/06/29 05:27:38;;;;;;;12.85;8.93;;;;;;;;;;5092428;28;20404;-69
2023/06/29 05:30:04;;;;;;;14.40;8.32;;;19.90;84.00;;;;;;5092152;28;20388;-68
2023/06/29 05:32:30;;;;;;;16.48;8.65;;;19.50;84.20;;;;;;5092214;28;20047;-69
2023/06/29 05:34:56;;;;;;;14.35;7.90;;;20.40;71.40;;;;;;5093717;28;20479;-69
2023/06/29 05:37:22;;;;;;;20.23;9.55;;;20.20;54.40;;;;;;5092237;28;20048;-70
2023/06/29 05:39:47;;;;;;;14.10;8.38;;;19.90;54.00;;;;;;5092494;28;20051;-70
2023/06/29 05:42:13;;;;;;;9.70;7.57;;;20.20;38.30;;;;;;5109040;28;20043;-68
2023/06/29 05:44:39;;;;;;;13.30;7.82;;;20.50;39.90;;;;;;5093693;28;20032;-72
2023/06/29 05:47:04;;;;;;;10.32;7.05;;;20.30;38.80;;;;;;5109058;28;20044;-68
2023/06/29 05:49:30;;;;;;;14.20;7.75;;;20.00;32.30;;;;;;5093369;28;20040;-68
2023/06/29 05:51:56;;;;;;;11.73;8.40;;;;;;;;;;5093121;28;20082;-69
2023/06/29 05:54:22;;;;;;;17.05;9.05;;;;;;;;;;5091940;28;20041;-70
2023/06/29 05:56:48;;;;;;;14.45;8.02;;;;;;;;;;5092225;28;20048;-69
2023/06/29 05:59:14;;;;;;;12.30;7.43;;;;;;;;;;5091906;28;20044;-68
2023/06/29 06:01:40;;;;;;;16.38;8.27;;;;;;;;;;5091615;28;20055;-69
2023/06/29 06:04:05;;;;;;;10.38;7.30;;;20.20;1.00;;;;;;5091841;28;20039;-69
2023/06/29 06:06:31;;;;;;;12.75;8.50;;;20.20;1.00;;;;;;5093005;28;20036;-70
2023/06/29 06:08:58;;;;;;;13.25;8.65;;;20.40;1.00;;;;;;5108739;28;20484;-70
2023/06/29 06:11:23;;;;;;;15.13;9.13;;;20.60;1.00;;;;;;5091569;28;20121;-70
2023/06/29 06:13:49;;;;;;;16.27;8.23;;;20.40;1.00;;;;;;5108603;28;20514;-69
2023/06/29 06:16:14;;;;;;;12.35;8.07;;;20.60;99.90;;;;;;5108567;28;20479;-68
2023/06/29 06:18:40;;;;;;;18.02;8.23;;;20.70;99.90;;;;;;5092807;28;20086;-71
2023/06/29 06:21:06;;;;;;;11.10;7.45;;;20.70;99.90;;;;;;5108474;28;20085;-70
2023/06/29 06:23:31;;;;;;;10.57;7.93;;;20.80;99.90;;;;;;5091790;28;20138;-71
2023/06/29 06:25:57;;;;;;;13.82;7.68;;;20.80;99.90;;;;;;5108422;28;20082;-71
2023/06/29 06:28:24;;;;;;;12.57;7.90;;;20.90;99.90;;;;;;5108660;28;20407;-71
2023/06/29 06:30:50;;;;;;;11.82;7.13;;;21.10;99.90;;;;;;5091262;28;20384;-71
2023/06/29 06:33:16;;;;;;;11.77;6.75;;;21.20;99.90;;;;;;5108360;28;20044;-70
2023/06/29 06:35:42;;;;;;;11.85;6.75;;;21.10;1.00;;;;;;5091402;28;20044;-71
2023/06/29 06:38:08;;;;;;;13.43;7.22;;;21.10;99.90;;;;;;5091705;28;20052;-73
2023/06/29 06:40:33;;;;;;;12.35;7.43;;;21.00;99.90;;;;;;5092910;28;20036;-71
2023/06/29 06:42:59;;;;;;;13.18;7.75;;;21.20;99.90;;;;;;5108462;28;20092;-71
2023/06/29 06:45:25;;;;;;;11.88;7.20;;;20.80;99.90;;;;;;5091244;28;20068;-71
2023/06/29 06:47:50;;;;;;;13.07;8.18;;;20.80;1.00;;;;;;5108035;28;20076;-71
2023/06/29 06:50:16;;;;;;;13.60;7.00;;;20.80;69.30;;;;;;5107994;28;20044;-71
2023/06/29 06:52:41;;;;;;;13.82;7.13;;;20.40;89.50;;;;;;5091320;28;20082;-71
2023/06/29 06:55:07;;;;;;;11.80;7.28;;;20.80;99.90;;;;;;5092497;28;20032;-70
2023/06/29 06:57:33;;;;;;;12.93;8.05;;;20.70;1.00;;;;;;5108504;28;20448;-70
2023/06/29 06:59:59;;;;;;;15.85;7.90;;;20.70;99.90;;;;;;5108218;28;20047;-70
2023/06/29 07:02:24;;;;;;;13.32;8.02;;;21.10;99.90;;;;;;5108150;28;20403;-70
2023/06/29 07:04:50;;;;;;;10.40;7.28;;;20.70;1.00;;;;;;5108075;28;20036;-71
2023/06/29 07:07:16;;;;;;;14.18;7.10;;;20.60;92.60;;;;;;5091131;28;20524;-70
2023/06/29 07:09:43;;;;;;;13.27;7.68;;;20.60;1.00;;;;;;5091037;28;20036;-71
2023/06/29 07:12:09;;;;;;;15.82;8.00;;;20.80;99.90;;;;;;5090984;28;20058;-71
2023/06/29 07:14:35;;;;;;;12.50;8.10;;;20.60;1.00;;;;;;5094822;28;20460;-71
2023/06/29 07:17:01;;;;;;;12.77;8.32;;;20.50;1.00;;;;;;5095281;28;20388;-71
2023/06/29 07:19:27;;;;;;;12.30;7.45;;;20.50;42.00;;;;;;5096537;28;20044;-71
2023/06/29 07:21:52;;;;;;;14.70;9.15;;;20.50;99.90;;;;;;5112120;28;20122;-71
2023/06/29 07:24:19;;;;;;;13.98;8.55;;;20.70;99.90;;;;;;5111729;28;20044;-72
2023/06/29 07:26:45;;;;;;;16.25;9.18;;;20.50;99.90;;;;;;5094696;28;20070;-72
2023/06/29 07:29:11;;;;;;;15.98;9.02;;;20.50;99.90;;;;;;5095088;28;20039;-71
2023/06/29 07:31:36;;;;;;;11.73;7.85;;;20.50;99.90;;;;;;5111480;28;20040;-70
2023/06/29 07:34:02;;;;;;;14.48;8.25;;;20.40;99.90;;;;;;5111907;28;20089;-71
2023/06/29 07:36:29;;;;;;;14.15;8.10;;;20.30;99.90;;;;;;5111889;28;20115;-71
2023/06/29 07:38:55;;;;;;;12.32;7.72;;;20.40;99.90;;;;;;5094477;28;20044;-72
2023/06/29 07:41:22;;;;;;;12.07;8.35;;;20.30;99.90;;;;;;5095816;28;20043;-70
2023/06/29 07:43:57;;;;;;;10.70;7.88;;;21.00;99.90;;;;;;5094763;28;20056;-71
2023/06/29 07:46:23;;;;;;;16.40;7.85;;;20.20;99.90;;;;;;5095988;28;20051;-71
2023/06/29 07:48:50;;;;;;;13.75;8.25;;;20.30;99.90;;;;;;5094380;28;20399;-72
2023/06/29 07:51:16;;;;;;;14.70;8.50;;;20.50;99.90;;;;;;5094264;28;20051;-71
2023/06/29 07:53:42;;;;;;;13.90;8.07;;;20.70;99.90;;;;;;5094210;28;20105;-71
2023/06/29 07:56:08;;;;;;;12.32;7.75;;;20.40;99.90;;;;;;5094269;28;20036;-71
2023/06/29 07:58:34;;;;;;;11.90;7.88;;;20.50;99.90;;;;;;5111200;28;20055;-71
2023/06/29 08:01:00;;;;;;;12.63;7.53;;;20.60;99.90;;;;;;5094126;28;20483;-71
2023/06/29 08:03:25;;;;;;;15.18;9.30;;;20.70;99.90;;;;;;5111038;28;20036;-71
2023/06/29 08:05:52;;;;;;;11.65;7.47;;;20.80;99.90;;;;;;5111226;28;20040;-71
2023/06/29 08:08:18;;;;;;;15.40;8.05;;;20.80;99.90;;;;;;5095364;28;20046;-71
2023/06/29 08:10:44;;;;;;;13.13;7.25;;;20.90;99.90;;;;;;5077217;28;20076;-72
2023/06/29 08:13:09;;;;;;;14.50;8.50;;;21.00;1.00;;;;;;5110902;28;20074;-71
2023/06/29 08:15:35;;;;;;;13.35;7.93;;;21.00;60.60;;;;;;5111096;28;20383;-71
2023/06/29 08:18:01;;;;;;;11.90;8.07;;;21.10;12.40;;;;;;5095055;28;20036;-72
2023/06/29 08:20:26;;;;;;;13.93;7.68;;;21.10;99.90;;;;;;5110782;28;20071;-71
2023/06/29 08:22:52;;;;;;;13.68;8.55;;;21.10;99.90;;;;;;5094966;28;20552;-71
2023/06/29 08:25:21;;;;;;;12.48;8.55;;;21.00;99.90;;;;;;5094591;28;20098;-71
2023/06/29 08:27:46;;;;;;;21.60;8.00;;;21.00;95.30;;;;;;5093863;28;20541;-71
2023/06/29 08:30:12;;;;;;;13.07;8.13;;;21.00;99.90;;;;;;5110577;28;20113;-71
2023/06/29 08:32:38;;;;;;;14.93;9.05;;;21.00;1.00;;;;;;5110529;28;20086;-72
2023/06/29 08:35:04;;;;;;;14.60;9.32;;;20.90;15.70;;;;;;5110467;28;20480;-72
2023/06/29 08:37:29;;;;;;;15.55;9.43;;;21.00;99.90;;;;;;5076598;28;20051;-72
2023/06/29 08:39:56;;;;;;;16.50;9.80;;;21.00;1.00;;;;;;5110569;28;20476;-72
2023/06/29 08:42:23;;;;;;;16.10;9.85;;;21.20;99.90;;;;;;5094648;28;20047;-72
2023/06/29 08:44:49;;;;;;;14.65;9.20;;;21.70;92.80;;;;;;5076782;28;20391;-72
2023/06/29 08:47:16;;;;;;;17.23;9.77;;;21.00;62.80;;;;;;5093330;28;20118;-72
2023/06/29 08:49:42;;;;;;;16.27;11.25;;;21.10;1.00;;;;;;5093438;28;20039;-72
2023/06/29 08:52:15;;;;;;;20.30;10.52;;;21.60;1.00;;;;;;5093171;28;20085;-73
2023/06/29 08:54:41;;;;;;;17.27;10.90;;;21.30;18.80;;;;;;5093120;28;20036;-71
2023/06/29 08:57:07;;;;;;;19.20;11.10;;;21.70;99.90;;;;;;5093347;28;20031;-72
2023/06/29 08:59:34;;;;;;;17.05;9.68;;;21.50;99.90;;;;;;5092960;28;20041;-72
2023/06/29 09:02:00;;;;;;;19.45;11.35;;;21.40;99.90;;;;;;5092980;28;20047;-71
2023/06/29 09:04:26;;;;;;;22.50;11.60;;;22.00;1.00;;;;;;5093190;28;20058;-72
2023/06/29 09:06:58;;;;;;;18.38;11.50;;;21.90;99.90;;;;;;5092845;28;20036;-71
2023/06/29 09:09:24;;;;;;;19.02;11.93;;;21.80;1.00;;;;;;5075827;28;20123;-72
2023/06/29 09:11:50;;;;;;;22.05;11.98;;;21.90;99.90;;;;;;5092677;28;20118;-72
2023/06/29 09:14:16;;;;;;;17.30;10.68;;;22.30;99.90;;;;;;5093040;28;20036;-72
2023/06/29 09:17:11;;;;;;;20.13;11.35;;;22.20;99.90;;;;;;5092640;28;20036;-71
2023/06/29 09:19:37;;;;;;;18.50;11.73;;;23.00;99.90;;;;;;5090424;28;20052;-71
2023/06/29 09:22:03;;;;;;;16.50;10.73;;;22.10;99.90;;;;;;5092640;28;20048;-72
2023/06/29 09:24:29;;;;;;;14.77;10.23;;;22.60;1.00;;;;;;5092634;28;20036;-72
2023/06/29 09:26:55;;;;;;;22.60;11.23;;;22.40;99.90;;;;;;5092411;28;20044;-73
2023/06/29 09:29:22;;;;;;;22.23;11.07;;;22.70;99.90;;;;;;5092757;28;20039;-72
2023/06/29 09:31:57;;;;;;;16.45;10.02;;;;;;;;;;5092169;28;20048;-72
2023/06/29 09:34:26;;;;;;;16.42;10.05;;;22.30;1.00;;;;;;5092262;28;20059;-72
2023/06/29 09:36:52;;;;;;;15.15;9.95;;;22.20;9.30;;;;;;5091574;28;20043;-72
2023/06/29 09:39:19;;;;;;;14.75;9.65;;;22.30;99.90;;;;;;5092179;28;20036;-72
2023/06/29 09:41:44;;;;;;;22.00;10.40;;;22.40;99.90;;;;;;5092193;28;20032;-72
2023/06/29 09:44:10;;;;;;;17.33;9.90;;;22.40;99.90;;;;;;5092151;28;20044;-72
2023/06/29 09:46:40;;;;;;;14.68;9.07;;;22.40;1.00;;;;;;5109083;28;20048;-72
2023/06/29 09:49:08;;;;;;;14.32;8.73;;;22.50;1.00;;;;;;5109109;28;20093;-72
2023/06/29 09:51:34;;;;;;;14.75;9.23;;;22.30;1.00;;;;;;5092165;28;20028;-72
2023/06/29 09:54:03;;;;;;;18.42;8.35;;;22.50;99.90;;;;;;5092222;28;20048;-72
2023/06/29 09:56:33;;;;;;;14.07;9.15;;;22.50;99.90;;;;;;5108899;28;20440;-72
2023/06/29 09:59:00;;;;;;;13.93;9.48;;;22.50;99.90;;;;;;5092266;28;20047;-72
2023/06/29 10:01:28;;;;;;;18.35;10.07;;;22.50;99.90;;;;;;5091863;28;20040;-72
2023/06/29 10:03:54;;;;;;;20.13;9.75;;;22.50;99.90;;;;;;5092136;28;20537;-72
2023/06/29 10:06:30;;;;;;;18.75;10.00;;;22.40;99.90;;;;;;5093137;28;20089;-71
2023/06/29 10:08:59;;;;;;;12.25;8.40;;;22.40;99.90;;;;;;5091712;28;20058;-71
2023/06/29 10:11:31;;;;;;;20.13;10.77;;;22.30;99.90;;;;;;5091879;28;20058;-72
2023/06/29 10:14:00;;;;;;;14.60;9.85;;;22.20;99.90;;;;;;5091644;28;20525;-73
2023/06/29 10:16:27;;;;;;;17.10;9.18;;;22.10;99.90;;;;;;5091952;28;20039;-72
2023/06/29 10:19:01;;;;;;;13.63;9.02;;;22.10;99.90;;;;;;5091644;28;20071;-72
2023/06/29 10:21:27;;;;;;;14.05;8.73;;;22.00;99.90;;;;;;5091595;28;20040;-71
2023/06/29 10:23:54;;;;;;;18.40;9.65;;;22.00;99.90;;;;;;5093003;28;20043;-72
2023/06/29 10:26:20;;;;;;;17.38;9.02;;;22.20;99.90;;;;;;5091795;28;20396;-72
2023/06/29 10:28:46;;;;;;;14.77;8.60;;;21.90;99.90;;;;;;5091774;28;20040;-72
2023/06/29 10:31:17;;;;;;;15.50;7.68;;;21.80;99.90;;;;;;5091434;28;20063;-72
2023/06/29 10:33:47;;;;;;;14.15;8.50;;;21.80;99.90;;;;;;5091672;28;20055;-72
2023/06/29 10:36:14;;;;;;;14.43;8.43;;;21.70;99.90;;;;;;5091381;28;20123;-71
2023/06/29 10:38:40;;;;;;;10.13;7.20;;;21.50;99.90;;;;;;5091651;28;20399;-72
2023/06/29 10:41:06;;;;;;;14.20;7.85;;;21.40;99.90;;;;;;5091349;28;20036;-72
2023/06/29 10:43:58;;;;;;;16.33;9.00;;;21.20;99.90;;;;;;5091378;28;20046;-71
2023/06/29 10:46:46;;;;;;;13.07;9.10;;;21.30;99.90;;;;;;5092986;28;20516;-72
2023/06/29 10:49:25;;;;;;;16.92;8.93;;;21.20;99.90;;;;;;5078526;28;20097;-74
2023/06/29 10:51:53;;;;;;;15.43;8.23;;;21.20;99.90;;;;;;5095200;28;20388;-71
2023/06/29 10:54:23;;;;;;;15.68;9.75;;;21.80;99.90;;;;;;5095401;28;20099;-71
2023/06/29 10:57:05;;;;;;;12.07;8.55;;;19.50;99.90;;;;;;5095541;28;20043;-71
2023/06/29 10:59:33;;;;;;;12.95;8.48;;;21.10;99.90;;;;;;5112579;28;20043;-72
2023/06/29 11:01:59;;;;;;;15.75;8.95;;;21.10;99.90;;;;;;5095253;28;20097;-71
2023/06/29 11:04:25;;;;;;;15.52;9.43;;;21.10;99.90;;;;;;5112188;28;20122;-70
2023/06/29 11:06:51;;;;;;;15.13;8.95;;;21.00;99.90;;;;;;5095112;28;20047;-72
2023/06/29 11:09:17;;;;;;;13.30;8.63;;;21.30;99.90;;;;;;5112440;28;20036;-71
2023/06/29 11:11:45;;;;;;;22.00;9.93;;;21.30;99.90;;;;;;5095254;28;20048;-71
2023/06/29 11:14:14;;;;;;;13.15;8.23;;;21.60;99.90;;;;;;5095115;28;20046;-70
2023/06/29 11:16:40;;;;;;;20.83;10.25;;;21.70;99.90;;;;;;5096202;28;20118;-73
2023/06/29 11:19:06;;;;;;;15.38;9.32;;;21.70;99.90;;;;;;5095174;28;20459;-72
2023/06/29 11:21:32;;;;;;;16.02;9.80;;;21.90;99.90;;;;;;5094880;28;20086;-71
2023/06/29 11:23:58;;;;;;;16.35;9.27;;;22.30;99.90;;;;;;5096440;28;20040;-71
2023/06/29 11:26:26;;;;;;;17.33;9.55;;;22.10;99.90;;;;;;5094808;28;20040;-71
2023/06/29 11:28:53;;;;;;;14.75;9.60;;;22.30;99.90;;;;;;5094730;28;20465;-71
2023/06/29 11:31:20;;;;;;;16.27;10.35;;;22.30;99.90;;;;;;5094449;28;20080;-71
2023/06/29 11:33:49;;;;;;;20.70;10.68;;;22.40;99.90;;;;;;5094848;28;20054;-71
2023/06/29 11:36:25;;;;;;;22.48;10.45;;;22.50;99.90;;;;;;5077902;28;20499;-70
2023/06/29 11:39:07;;;;;;;19.33;10.35;;;22.60;99.90;;;;;;5094575;28;20400;-71
2023/06/29 11:41:33;;;;;;;17.42;9.52;;;22.70;99.90;;;;;;5094493;28;20044;-71
2023/06/29 11:44:00;;;;;;;21.27;9.57;;;22.70;99.90;;;;;;5094462;28;20491;-71
2023/06/29 11:46:26;;;;;;;14.35;9.10;;;22.70;99.90;;;;;;5094730;28;20047;-71
2023/06/29 11:48:56;;;;;;;19.98;10.45;;;22.80;99.90;;;;;;5094265;28;20059;-71
2023/06/29 11:51:25;;;;;;;15.03;10.10;;;23.00;99.90;;;;;;5094343;28;20044;-70
2023/06/29 11:53:53;;;;;;;15.33;9.43;;;23.10;99.90;;;;;;5094266;28;20039;-72
2023/06/29 11:56:35;;;;;;;16.50;9.90;;;23.20;99.90;;;;;;5094220;28;20281;-71
2023/06/29 11:59:10;;;;;;;14.63;10.25;;;23.30;99.90;;;;;;5094702;28;20068;-70
2023/06/29 12:01:36;;;;;;;14.23;9.40;;;23.30;96.10;;;;;;5094214;28;20420;-71
2023/06/29 12:04:16;;;;;;;14.32;8.80;;;23.30;99.90;;;;;;5094115;28;20051;-71
2023/06/29 12:06:53;;;;;;;15.93;10.43;;;23.30;92.10;;;;;;5094018;28;20127;-71
2023/06/29 12:09:19;;;;;;;17.90;10.48;;;23.00;74.80;;;;;;5094039;28;20048;-72
2023/06/29 12:11:54;;;;;;;18.70;9.75;;;23.10;53.90;;;;;;5093836;28;20051;-71
2023/06/29 12:14:20;;;;;;;16.10;10.00;;;23.20;78.90;;;;;;5093881;28;20450;-71
2023/06/29 12:16:50;;;;;;;21.88;10.82;;;23.30;86.70;;;;;;5093761;28;20044;-71
2023/06/29 12:19:16;;;;;;;18.45;10.50;;;23.50;60.40;;;;;;5095081;28;20040;-72
2023/06/29 12:21:41;;;;;;;17.02;10.70;;;23.60;44.60;;;;;;5093923;28;20116;-71
2023/06/29 12:24:07;;;;;;;16.50;10.15;;;23.70;27.70;;;;;;5093948;28;20133;-71
2023/06/29 12:26:33;;;;;;;21.42;10.77;;;23.80;23.80;;;;;;5076968;28;20081;-72
2023/06/29 12:28:58;;;;;;;16.27;10.05;;;23.80;25.50;;;;;;5093571;28;20036;-71
2023/06/29 12:31:28;;;;;;;14.80;9.90;;;24.00;99.90;;;;;;5093388;28;20048;-71
2023/06/29 12:33:54;;;;;;;15.13;9.70;;;24.20;27.40;;;;;;5093495;28;20461;-71
2023/06/29 12:36:22;;;;;;;24.92;9.65;;;24.10;18.00;;;;;;5093769;28;20124;-71